Time;durP1;ratioP1;P1;durP2;ratioP2;P2;SDS_P1;SDS_P2;PMS_P1;PMS_P2;Temp;Humidity;BMP_temperature;BMP_pressure;BME280_temperature;BME280_humidity;BME280_pressure;Samples;Min_cycle;Max_cycle;Signal;HPM_P1;HPM_P2
2022/04/06 00:01:44;;;;;;;16.17;12.63;;;8.90;99.90;;;;;;4977207;28;20676;-83
2022/04/06 00:04:09;;;;;;;18.50;11.93;;;8.90;99.90;;;;;;4976422;28;20224;-83
2022/04/06 00:06:35;;;;;;;14.83;11.73;;;8.90;99.90;;;;;;4976544;28;20548;-83
2022/04/06 00:09:01;;;;;;;12.63;10.83;;;8.90;99.90;;;;;;4976138;28;20220;-83
2022/04/06 00:11:27;;;;;;;12.63;10.50;;;8.90;99.90;;;;;;4976083;28;20192;-82
2022/04/06 00:13:52;;;;;;;16.63;10.43;;;8.90;99.90;;;;;;4976199;28;20529;-83
2022/04/06 00:16:18;;;;;;;16.70;10.53;;;8.90;99.90;;;;;;4991438;28;20547;-83
2022/04/06 00:18:44;;;;;;;11.90;9.53;;;8.80;99.90;;;;;;4995585;28;20548;-83
2022/04/06 00:21:11;;;;;;;15.23;9.47;;;8.80;99.90;;;;;;4995597;28;20187;-83
2022/04/06 00:23:37;;;;;;;15.57;8.97;;;8.80;99.90;;;;;;4995248;28;20180;-83
2022/04/06 00:26:03;;;;;;;11.93;8.90;;;8.80;99.90;;;;;;4996717;28;20508;-83
2022/04/06 00:28:29;;;;;;;13.37;8.77;;;8.80;99.90;;;;;;4995297;28;20211;-82
2022/04/06 00:30:54;;;;;;;12.90;8.50;;;8.80;99.90;;;;;;4996415;28;20630;-83
2022/04/06 00:33:20;;;;;;;12.70;8.07;;;8.80;99.90;;;;;;4995323;28;20180;-82
2022/04/06 00:35:46;;;;;;;13.20;8.23;;;8.80;99.90;;;;;;4995303;28;20172;-82
2022/04/06 00:38:11;;;;;;;14.17;8.33;;;8.80;99.90;;;;;;4996300;28;20250;-83
2022/04/06 00:40:38;;;;;;;12.73;7.87;;;8.80;99.90;;;;;;4995593;28;20556;-82
2022/04/06 00:43:09;;;;;;;13.23;8.00;;;8.80;99.90;;;;;;4996314;28;20179;-82
2022/04/06 00:45:35;;;;;;;13.63;8.30;;;8.80;99.90;;;;;;4996451;28;20206;-82
2022/04/06 00:48:01;;;;;;;10.60;7.73;;;8.80;99.90;;;;;;4994615;28;20617;-83
2022/04/06 00:50:27;;;;;;;11.80;7.63;;;8.80;99.90;;;;;;4996185;28;20203;-81
2022/04/06 00:52:55;;;;;;;14.27;8.33;;;8.70;99.90;;;;;;4996065;28;20254;-82
2022/04/06 00:55:21;;;;;;;11.90;8.13;;;8.80;99.90;;;;;;4996159;28;20258;-82
2022/04/06 00:57:48;;;;;;;13.30;8.93;;;8.80;99.90;;;;;;4995904;28;20258;-82
2022/04/06 01:00:15;;;;;;;10.50;8.17;;;8.80;99.90;;;;;;4995913;28;20219;-81
2022/04/06 01:02:41;;;;;;;15.17;9.00;;;8.80;99.90;;;;;;4994443;28;20192;-82
2022/04/06 01:05:07;;;;;;;16.17;9.73;;;8.80;99.90;;;;;;4994719;28;20520;-81
2022/04/06 01:07:34;;;;;;;11.40;8.93;;;8.80;99.90;;;;;;4994412;28;20180;-82
2022/04/06 01:09:59;;;;;;;13.33;10.27;;;8.90;99.90;;;;;;4994483;28;20266;-82
2022/04/06 01:12:27;;;;;;;12.03;9.40;;;8.90;99.90;;;;;;4995897;28;20306;-81
2022/04/06 01:14:54;;;;;;;15.03;10.13;;;8.90;99.90;;;;;;4994476;28;20191;-82
2022/04/06 01:17:20;;;;;;;16.70;11.03;;;8.90;99.90;;;;;;4994181;28;20211;-82
2022/04/06 01:19:51;;;;;;;15.67;10.53;;;8.80;99.90;;;;;;4995683;28;20211;-81
2022/04/06 01:22:18;;;;;;;17.40;10.77;;;8.90;99.90;;;;;;4995585;28;20164;-82
2022/04/06 01:24:46;;;;;;;14.20;10.27;;;8.90;99.90;;;;;;4995584;28;20172;-82
2022/04/06 01:27:12;;;;;;;14.03;10.47;;;8.90;99.90;;;;;;4995666;28;20187;-82
2022/04/06 01:29:38;;;;;;;15.27;10.00;;;8.90;99.90;;;;;;4995519;28;20180;-82
2022/04/06 01:32:13;;;;;;;16.47;11.23;;;8.90;99.90;;;;;;4995130;28;20183;-81
2022/04/06 01:34:40;;;;;;;15.07;10.53;;;9.00;99.90;;;;;;4994179;28;20203;-82
2022/04/06 01:37:07;;;;;;;13.77;10.10;;;9.00;99.90;;;;;;4995363;28;20210;-82
2022/04/06 01:39:34;;;;;;;15.07;9.33;;;8.90;99.90;;;;;;4995413;28;20306;-82
2022/04/06 01:42:01;;;;;;;14.33;9.80;;;8.90;99.90;;;;;;4994003;28;20187;-82
2022/04/06 01:44:27;;;;;;;14.07;9.47;;;8.90;99.90;;;;;;4995390;28;20611;-82
2022/04/06 01:46:53;;;;;;;16.17;9.47;;;9.00;99.90;;;;;;4993521;28;20628;-83
2022/04/06 01:52:13;;;;;;;14.47;9.17;;;9.00;99.90;;;;;;4995093;28;20175;-83
2022/04/06 01:55:06;;;;;;;16.00;9.00;;;9.00;99.90;;;;;;4993694;28;20192;-82
2022/04/06 01:57:32;;;;;;;16.03;9.60;;;9.00;99.90;;;;;;4993863;28;20216;-82
2022/04/06 01:59:58;;;;;;;16.03;9.17;;;9.00;99.90;;;;;;4994783;28;20172;-83
2022/04/06 02:02:27;;;;;;;18.37;9.33;;;9.00;99.90;;;;;;4994866;28;20172;-82
2022/04/06 02:04:53;;;;;;;16.50;8.73;;;9.00;99.90;;;;;;4995044;28;20207;-82
2022/04/06 02:07:18;;;;;;;14.40;9.33;;;8.90;99.90;;;;;;4994984;28;20250;-82
2022/04/06 02:09:44;;;;;;;13.13;8.40;;;8.90;99.90;;;;;;4993596;28;20180;-82
2022/04/06 02:12:11;;;;;;;17.07;8.50;;;9.00;99.90;;;;;;4994687;28;20188;-82
2022/04/06 02:14:41;;;;;;;17.00;8.60;;;9.00;99.90;;;;;;5426446;23;20573;-82
2022/04/06 02:17:08;;;;;;;18.27;9.53;;;9.00;99.90;;;;;;4990018;28;20223;-81
2022/04/06 02:19:36;;;;;;;13.30;7.87;;;9.00;99.90;;;;;;4981577;28;20235;-81
2022/04/06 02:22:04;;;;;;;14.67;8.40;;;9.00;99.90;;;;;;4975471;28;20180;-82
2022/04/06 02:24:30;;;;;;;11.57;7.30;;;9.00;99.90;;;;;;4975004;28;20177;-81
2022/04/06 02:26:55;;;;;;;11.57;6.97;;;8.90;99.90;;;;;;4975409;28;20488;-81
2022/04/06 02:29:21;;;;;;;15.53;8.73;;;8.90;99.90;;;;;;4975125;28;20231;-81
2022/04/06 02:31:47;;;;;;;13.90;8.27;;;9.00;99.90;;;;;;4989850;28;20228;-81
2022/04/06 02:34:13;;;;;;;13.47;7.90;;;8.90;99.90;;;;;;4974072;28;20215;-82
2022/04/06 02:36:39;;;;;;;15.07;9.33;;;8.90;99.90;;;;;;4975228;28;20250;-82
2022/04/06 02:39:05;;;;;;;13.73;8.73;;;8.90;99.90;;;;;;4975151;28;20196;-81
2022/04/06 02:41:30;;;;;;;14.97;8.97;;;8.90;99.90;;;;;;4975043;28;20180;-81
2022/04/06 02:43:56;;;;;;;15.87;8.73;;;8.80;99.90;;;;;;4973728;28;20223;-80
2022/04/06 02:46:22;;;;;;;16.23;9.53;;;8.80;99.90;;;;;;4974986;28;20658;-81
2022/04/06 02:48:47;;;;;;;13.83;9.13;;;8.80;99.90;;;;;;4990125;28;20627;-81
2022/04/06 02:51:13;;;;;;;16.40;10.20;;;8.80;99.90;;;;;;4973829;28;20189;-81
2022/04/06 02:53:39;;;;;;;18.07;10.57;;;8.90;99.90;;;;;;4973709;28;20193;-82
2022/04/06 02:56:05;;;;;;;17.70;10.50;;;8.80;99.90;;;;;;4973745;28;20215;-81
2022/04/06 02:58:30;;;;;;;15.90;11.70;;;8.80;99.90;;;;;;4975153;28;20200;-81
2022/04/06 03:00:56;;;;;;;19.70;11.80;;;8.80;99.90;;;;;;4973947;28;20612;-81
2022/04/06 03:03:23;;;;;;;17.67;11.37;;;8.90;99.90;;;;;;4975291;28;20185;-81
2022/04/06 03:05:48;;;;;;;20.47;12.40;;;8.90;99.90;;;;;;4977561;28;20215;-82
2022/04/06 03:08:15;;;;;;;18.63;12.37;;;8.80;99.90;;;;;;4978581;28;20172;-81
2022/04/06 03:10:40;;;;;;;19.13;12.97;;;8.90;99.90;;;;;;4978524;28;20188;-81
2022/04/06 03:13:06;;;;;;;18.90;12.93;;;8.90;99.90;;;;;;4978517;28;20177;-81
2022/04/06 03:15:32;;;;;;;19.77;13.87;;;8.90;99.90;;;;;;4978405;28;20231;-82
2022/04/06 03:17:57;;;;;;;22.60;13.87;;;8.90;99.90;;;;;;4978216;28;20208;-81
2022/04/06 03:20:23;;;;;;;22.13;14.60;;;8.90;99.90;;;;;;4977321;28;20184;-81
2022/04/06 03:22:49;;;;;;;20.43;14.50;;;8.80;99.90;;;;;;4978249;28;20185;-81
2022/04/06 03:25:14;;;;;;;25.37;15.07;;;8.90;99.90;;;;;;4976625;28;20181;-81
2022/04/06 03:27:40;;;;;;;25.03;15.67;;;8.90;99.90;;;;;;4977027;28;20177;-81
2022/04/06 03:30:10;;;;;;;22.57;16.00;;;8.90;99.90;;;;;;4978316;28;20260;-80
2022/04/06 03:32:36;;;;;;;27.03;16.37;;;8.90;99.90;;;;;;4977899;28;20215;-81
2022/04/06 03:35:01;;;;;;;25.87;17.10;;;8.90;99.90;;;;;;4976814;28;20212;-81
2022/04/06 03:37:27;;;;;;;30.53;17.53;;;8.90;99.90;;;;;;4977581;28;20216;-81
2022/04/06 03:39:53;;;;;;;31.83;17.03;;;8.90;99.90;;;;;;4976823;28;20586;-81
2022/04/06 03:42:18;;;;;;;24.67;16.33;;;8.90;99.90;;;;;;4978083;28;20560;-81
2022/04/06 03:44:44;;;;;;;26.20;17.60;;;8.90;99.90;;;;;;4977979;28;20188;-81
2022/04/06 03:47:09;;;;;;;26.97;17.37;;;8.90;99.90;;;;;;4976486;28;20275;-81
2022/04/06 03:49:35;;;;;;;32.30;18.60;;;8.80;99.90;;;;;;4976767;28;20512;-81
2022/04/06 03:52:01;;;;;;;30.43;18.73;;;8.90;99.90;;;;;;4977741;28;20636;-81
2022/04/06 03:54:27;;;;;;;32.87;19.73;;;8.90;99.90;;;;;;4977775;28;20180;-81
2022/04/06 03:56:52;;;;;;;28.43;20.17;;;8.90;99.90;;;;;;4976589;28;20377;-81
2022/04/06 03:59:18;;;;;;;35.87;21.23;;;8.90;99.90;;;;;;4976319;28;20595;-81
2022/04/06 04:01:44;;;;;;;33.07;21.47;;;8.90;99.90;;;;;;4976183;28;20180;-81
2022/04/06 04:04:10;;;;;;;35.10;22.50;;;8.90;99.90;;;;;;4976572;28;20242;-81
2022/04/06 04:06:36;;;;;;;40.60;26.47;;;8.90;99.90;;;;;;4976300;28;20181;-81
2022/04/06 04:09:03;;;;;;;35.00;25.33;;;8.90;99.90;;;;;;4976353;28;20173;-81
2022/04/06 04:11:29;;;;;;;35.30;24.57;;;8.90;99.90;;;;;;4976241;28;20284;-81
2022/04/06 04:13:54;;;;;;;40.57;26.20;;;8.90;99.90;;;;;;4975406;28;20228;-80
2022/04/06 04:16:20;;;;;;;41.40;28.73;;;8.90;99.90;;;;;;4976868;28;20534;-81
2022/04/06 04:18:46;;;;;;;38.17;27.50;;;8.90;99.90;;;;;;4976117;28;20216;-81
2022/04/06 04:23:55;;;;;;;38.77;27.80;;;9.00;99.90;;;;;;4977305;28;20171;-82
2022/04/06 04:26:21;;;;;;;39.50;29.13;;;9.00;99.90;;;;;;4977133;28;20177;-81
2022/04/06 04:28:47;;;;;;;44.00;28.67;;;9.00;99.90;;;;;;4977205;28;20165;-81
2022/04/06 04:31:12;;;;;;;39.57;29.37;;;9.00;99.90;;;;;;4975556;28;20231;-81
2022/04/06 04:33:38;;;;;;;46.87;29.33;;;9.00;99.90;;;;;;4975195;28;20184;-80
2022/04/06 04:36:04;;;;;;;40.30;28.27;;;9.00;99.90;;;;;;4976350;28;20173;-80
2022/04/06 04:38:29;;;;;;;41.07;29.10;;;9.00;99.90;;;;;;4975799;28;20215;-81
2022/04/06 04:40:55;;;;;;;45.90;28.63;;;9.00;99.90;;;;;;4976800;28;20177;-81
2022/04/06 04:43:22;;;;;;;44.77;28.73;;;9.00;99.90;;;;;;4976930;28;20184;-81
2022/04/06 04:45:48;;;;;;;40.47;29.07;;;9.00;99.90;;;;;;4976835;28;20173;-81
2022/04/06 04:48:14;;;;;;;41.60;28.43;;;9.00;99.90;;;;;;4975167;28;20267;-81
2022/04/06 04:50:39;;;;;;;43.97;29.30;;;9.00;99.90;;;;;;4975196;28;20271;-81
2022/04/06 04:53:05;;;;;;;42.37;28.67;;;9.00;99.90;;;;;;4976295;28;20191;-81
2022/04/06 04:55:32;;;;;;;42.43;28.27;;;9.10;99.90;;;;;;4976395;28;20173;-80
2022/04/06 04:57:58;;;;;;;43.80;29.03;;;9.10;99.90;;;;;;4975337;28;20231;-82
2022/04/06 05:00:24;;;;;;;41.07;27.20;;;9.10;99.90;;;;;;4976706;28;20173;-81
2022/04/06 05:02:49;;;;;;;36.70;27.90;;;9.10;99.90;;;;;;4974869;28;20176;-81
2022/04/06 05:05:15;;;;;;;38.77;27.13;;;9.10;99.90;;;;;;4974898;28;20185;-80
2022/04/06 05:07:40;;;;;;;43.37;27.90;;;9.10;99.90;;;;;;4974941;28;20381;-81
2022/04/06 05:10:07;;;;;;;40.83;27.83;;;9.10;99.90;;;;;;4975814;28;20522;-81
2022/04/06 05:12:33;;;;;;;40.13;26.97;;;9.10;99.90;;;;;;4976359;28;20188;-81
2022/04/06 05:14:59;;;;;;;38.77;27.63;;;9.10;99.90;;;;;;4975795;28;20228;-81
2022/04/06 05:17:26;;;;;;;39.60;27.23;;;9.10;99.90;;;;;;4975626;28;20251;-81
2022/04/06 05:19:52;;;;;;;38.67;25.47;;;9.10;99.90;;;;;;4976580;28;20219;-81
2022/04/06 05:22:17;;;;;;;39.93;26.83;;;9.20;99.90;;;;;;4976258;28;20624;-82
2022/04/06 05:24:43;;;;;;;36.67;25.23;;;9.10;99.90;;;;;;4976118;28;20211;-82
2022/04/06 05:27:09;;;;;;;35.63;25.97;;;9.10;99.90;;;;;;4975818;28;20264;-82
2022/04/06 05:29:34;;;;;;;39.00;25.13;;;9.10;99.90;;;;;;4976186;28;20607;-81
2022/04/06 05:32:00;;;;;;;35.47;23.73;;;9.10;99.90;;;;;;4975018;28;20521;-81
2022/04/06 05:34:26;;;;;;;31.87;23.43;;;9.10;99.90;;;;;;4975920;28;20219;-81
2022/04/06 05:36:52;;;;;;;36.10;24.33;;;9.10;99.90;;;;;;4975981;28;20308;-82
2022/04/06 05:39:17;;;;;;;29.50;21.43;;;9.10;99.90;;;;;;4974567;28;20184;-81
2022/04/06 05:41:43;;;;;;;35.00;22.60;;;9.10;99.90;;;;;;4974620;28;20643;-81
2022/04/06 05:44:09;;;;;;;35.60;21.67;;;9.10;99.90;;;;;;4974540;28;20590;-82
2022/04/06 05:46:34;;;;;;;30.30;21.17;;;9.10;99.90;;;;;;4975404;28;20533;-82
2022/04/06 05:49:00;;;;;;;30.43;21.20;;;9.10;99.90;;;;;;4975702;28;20607;-82
2022/04/06 05:51:26;;;;;;;31.00;20.17;;;9.10;99.90;;;;;;4975585;28;20177;-81
2022/04/06 05:53:51;;;;;;;31.57;21.17;;;9.10;99.90;;;;;;4975707;28;20264;-81
2022/04/06 05:56:17;;;;;;;33.27;20.33;;;9.10;99.90;;;;;;4975663;28;20488;-81
2022/04/06 05:58:43;;;;;;;27.23;18.90;;;9.20;99.90;;;;;;4975611;28;20179;-82
2022/04/06 06:01:09;;;;;;;28.80;19.03;;;9.10;99.90;;;;;;4975587;28;20190;-81
2022/04/06 06:03:35;;;;;;;25.00;17.33;;;9.20;99.90;;;;;;4973952;28;20189;-82
2022/04/06 06:06:01;;;;;;;25.20;17.97;;;9.20;99.90;;;;;;4975576;28;20203;-81
2022/04/06 06:08:26;;;;;;;26.33;18.37;;;9.20;99.90;;;;;;4974261;28;20187;-81
2022/04/06 06:10:52;;;;;;;26.53;16.37;;;9.10;99.90;;;;;;4975624;28;20176;-81
2022/04/06 06:13:18;;;;;;;27.23;16.83;;;9.20;99.90;;;;;;4975369;28;20212;-81
2022/04/06 06:15:44;;;;;;;30.40;16.40;;;9.20;99.90;;;;;;4975179;28;20236;-81
2022/04/06 06:18:09;;;;;;;28.77;15.60;;;9.20;99.90;;;;;;4975028;28;20208;-81
2022/04/06 06:20:35;;;;;;;27.77;16.60;;;9.20;99.90;;;;;;4974229;28;20220;-82
2022/04/06 06:23:01;;;;;;;28.17;17.40;;;9.10;99.90;;;;;;4975350;28;20184;-81
2022/04/06 06:25:26;;;;;;;30.83;17.03;;;9.10;99.90;;;;;;4975487;28;20204;-81
2022/04/06 06:27:52;;;;;;;26.13;17.70;;;9.00;99.90;;;;;;4975312;28;20184;-81
2022/04/06 06:30:18;;;;;;;24.80;18.00;;;8.90;99.90;;;;;;4975287;28;20165;-81
2022/04/06 06:32:45;;;;;;;30.70;18.13;;;8.90;99.90;;;;;;4974942;28;20227;-81
2022/04/06 06:35:11;;;;;;;28.77;17.43;;;8.90;99.90;;;;;;4975310;28;20172;-81
2022/04/06 06:37:45;;;;;;;28.67;17.57;;;8.80;99.90;;;;;;4976068;28;20218;-81
2022/04/06 06:40:11;;;;;;;25.53;17.17;;;8.80;99.90;;;;;;4979223;28;20168;-82
2022/04/06 06:42:37;;;;;;;27.97;17.00;;;8.80;99.90;;;;;;4978981;28;20177;-81
2022/04/06 06:45:03;;;;;;;26.33;16.40;;;8.90;99.90;;;;;;4977716;28;20255;-82
2022/04/06 06:47:28;;;;;;;19.93;15.27;;;8.90;99.90;;;;;;4978712;28;20180;-81
2022/04/06 06:49:54;;;;;;;22.73;14.67;;;8.90;99.90;;;;;;4979100;28;20481;-81
2022/04/06 06:52:19;;;;;;;27.87;15.00;;;8.90;99.90;;;;;;4978951;28;20200;-82
2022/04/06 06:54:45;;;;;;;22.07;13.90;;;8.90;99.90;;;;;;4979023;28;20219;-81
2022/04/06 06:57:11;;;;;;;19.13;13.23;;;9.00;99.90;;;;;;4978826;28;20236;-81
2022/04/06 06:59:37;;;;;;;24.67;13.87;;;9.00;99.90;;;;;;4993801;28;20211;-80
2022/04/06 07:02:03;;;;;;;20.63;13.57;;;9.00;99.90;;;;;;4978411;28;20640;-81
2022/04/06 07:04:29;;;;;;;25.20;13.13;;;9.00;99.90;;;;;;4978864;28;20177;-82
2022/04/06 07:06:55;;;;;;;24.50;12.37;;;9.00;99.90;;;;;;4978864;28;20169;-82
2022/04/06 07:09:20;;;;;;;19.97;12.13;;;9.10;99.90;;;;;;4978632;28;20184;-82
2022/04/06 07:11:46;;;;;;;20.53;12.10;;;9.10;99.90;;;;;;4993495;28;20525;-82
2022/04/06 07:14:11;;;;;;;24.43;13.30;;;9.10;99.90;;;;;;4993466;28;20251;-81
2022/04/06 07:16:37;;;;;;;19.70;12.17;;;9.10;99.90;;;;;;4993478;28;20209;-82
2022/04/06 07:19:03;;;;;;;18.50;12.30;;;9.20;99.90;;;;;;4978251;28;20169;-82
2022/04/06 07:21:28;;;;;;;19.13;12.37;;;9.30;99.90;;;;;;4993236;28;20622;-81
2022/04/06 07:23:55;;;;;;;17.17;12.67;;;9.30;99.90;;;;;;4993404;28;20180;-81
2022/04/06 07:26:21;;;;;;;23.30;12.73;;;9.40;99.90;;;;;;4978354;28;20171;-82
2022/04/06 07:28:47;;;;;;;24.47;14.10;;;9.40;99.90;;;;;;4978076;28;20259;-82
2022/04/06 07:31:13;;;;;;;21.23;13.60;;;9.40;99.90;;;;;;4978253;28;20600;-82
2022/04/06 07:33:40;;;;;;;18.97;12.70;;;9.50;99.90;;;;;;4976673;28;20200;-82
2022/04/06 07:36:06;;;;;;;23.50;13.57;;;9.50;99.90;;;;;;4978262;28;20172;-83
2022/04/06 07:38:32;;;;;;;24.47;14.40;;;9.60;99.90;;;;;;4993059;28;20219;-82
2022/04/06 07:40:58;;;;;;;20.90;14.40;;;9.60;99.90;;;;;;4978190;28;20183;-82
2022/04/06 07:43:25;;;;;;;22.67;14.13;;;9.60;99.90;;;;;;4977864;28;20260;-83
2022/04/06 07:45:50;;;;;;;20.23;13.97;;;9.60;99.90;;;;;;4977932;28;20634;-82
2022/04/06 07:48:16;;;;;;;23.37;14.87;;;9.60;99.90;;;;;;4977318;28;20181;-81
2022/04/06 07:50:42;;;;;;;26.80;15.20;;;9.60;99.90;;;;;;4977958;28;20172;-81
2022/04/06 07:53:07;;;;;;;25.70;14.70;;;9.70;99.90;;;;;;4978385;28;20496;-81
2022/04/06 07:55:33;;;;;;;23.17;14.57;;;9.70;99.90;;;;;;4976605;28;20258;-81
2022/04/06 07:57:59;;;;;;;23.53;15.57;;;9.80;99.90;;;;;;4977619;28;20216;-82
2022/04/06 08:00:25;;;;;;;27.10;14.87;;;9.80;99.90;;;;;;4977742;28;20587;-82
2022/04/06 08:02:51;;;;;;;24.63;15.33;;;9.80;99.90;;;;;;4977415;28;20218;-82
2022/04/06 08:05:19;;;;;;;27.77;15.57;;;9.90;99.90;;;;;;4977683;28;20255;-81
2022/04/06 08:07:45;;;;;;;26.40;14.80;;;9.90;99.90;;;;;;4977643;28;20246;-81
2022/04/06 08:10:15;;;;;;;24.33;14.87;;;10.00;99.90;;;;;;4977642;28;20176;-82
2022/04/06 08:12:41;;;;;;;20.07;13.60;;;10.00;99.90;;;;;;4977336;28;20172;-81
2022/04/06 08:15:10;;;;;;;18.40;13.13;;;10.00;99.90;;;;;;4977344;28;20236;-82
2022/04/06 08:17:44;;;;;;;21.63;13.67;;;9.90;99.90;;;;;;4975798;28;20220;-81
2022/04/06 08:20:12;;;;;;;18.60;12.37;;;9.90;99.90;;;;;;4977343;28;20203;-82
2022/04/06 08:22:39;;;;;;;18.80;12.53;;;9.90;99.90;;;;;;4975997;28;20184;-82
2022/04/06 08:25:05;;;;;;;20.83;12.30;;;9.90;99.90;;;;;;4977231;28;20176;-82
2022/04/06 08:27:32;;;;;;;18.97;11.67;;;9.90;99.90;;;;;;4977261;28;20188;-82
2022/04/06 08:29:58;;;;;;;18.10;11.43;;;9.80;99.90;;;;;;4992246;28;20197;-82
2022/04/06 08:32:23;;;;;;;16.93;11.13;;;9.80;99.90;;;;;;4976906;28;20566;-83
2022/04/06 08:34:49;;;;;;;16.87;10.87;;;9.90;99.90;;;;;;4977041;28;20223;-81
2022/04/06 08:37:15;;;;;;;15.77;10.63;;;10.00;99.90;;;;;;4976978;28;20212;-83
2022/04/06 08:39:40;;;;;;;16.50;10.40;;;10.10;99.90;;;;;;4976959;28;20180;-82
2022/04/06 08:42:06;;;;;;;16.90;10.20;;;10.10;99.90;;;;;;4976842;28;20188;-82
2022/04/06 08:44:32;;;;;;;16.53;10.27;;;10.20;99.90;;;;;;4976970;28;20514;-82
2022/04/06 08:47:06;;;;;;;14.63;10.00;;;10.20;99.90;;;;;;4976818;28;20180;-82
2022/04/06 08:49:34;;;;;;;11.07;8.70;;;10.30;99.90;;;;;;4976853;28;20164;-82
2022/04/06 08:52:01;;;;;;;12.73;9.17;;;10.30;99.90;;;;;;4976761;28;20203;-82
2022/04/06 08:54:26;;;;;;;13.80;8.40;;;10.40;99.90;;;;;;4975380;28;20681;-82
2022/04/06 08:56:52;;;;;;;10.93;7.30;;;10.40;99.90;;;;;;4976653;28;20679;-82
2022/04/06 08:59:18;;;;;;;12.60;7.77;;;10.30;99.90;;;;;;4976555;28;20185;-83
2022/04/06 09:01:44;;;;;;;16.03;8.03;;;10.40;99.90;;;;;;4976014;28;20188;-82
2022/04/06 09:04:09;;;;;;;12.50;7.43;;;10.40;99.90;;;;;;4975163;28;20181;-81
2022/04/06 09:06:40;;;;;;;8.97;6.93;;;10.50;99.90;;;;;;4976468;28;20181;-81
2022/04/06 09:09:07;;;;;;;15.10;7.00;;;10.40;99.90;;;;;;4976329;28;20263;-82
2022/04/06 09:11:44;;;;;;;11.40;7.00;;;10.40;99.90;;;;;;4976547;28;20217;-81
2022/04/06 09:14:10;;;;;;;11.03;6.90;;;10.30;99.90;;;;;;4975165;28;20235;-81
2022/04/06 09:16:36;;;;;;;12.87;6.83;;;10.30;99.90;;;;;;4974883;28;20176;-82
2022/04/06 09:19:10;;;;;;;10.00;6.73;;;10.20;99.90;;;;;;4975920;28;20604;-82
2022/04/06 09:21:46;;;;;;;12.67;7.10;;;10.20;99.90;;;;;;4991165;28;20228;-82
2022/04/06 09:24:20;;;;;;;13.20;6.63;;;10.20;99.90;;;;;;4976291;28;20184;-82
2022/04/06 09:27:00;;;;;;;11.90;6.83;;;10.20;99.90;;;;;;4976285;28;20199;-81
2022/04/06 09:29:26;;;;;;;11.80;6.73;;;10.30;99.90;;;;;;4975999;28;20250;-82
2022/04/06 09:31:52;;;;;;;13.07;6.73;;;10.30;99.90;;;;;;4976053;28;20208;-82
2022/04/06 09:34:23;;;;;;;7.90;5.90;;;10.40;99.90;;;;;;4975817;28;20176;-82
2022/04/06 09:36:56;;;;;;;10.20;6.10;;;10.40;99.90;;;;;;4975862;28;20204;-81
2022/04/06 09:39:46;;;;;;;9.00;5.90;;;10.30;99.90;;;;;;4976122;28;20157;-82
2022/04/06 09:42:20;;;;;;;8.57;5.60;;;10.30;99.90;;;;;;4990772;28;20510;-83
2022/04/06 09:47:42;;;;;;;7.30;4.83;;;10.30;99.90;;;;;;4975941;28;20192;-82
2022/04/06 09:50:11;;;;;;;9.32;4.85;;;10.30;99.90;;;;;;4974742;28;20215;-82
2022/04/06 09:52:38;;;;;;;8.77;4.80;;;10.30;99.90;;;;;;4990454;28;20251;-82
2022/04/06 09:55:09;;;;;;;8.07;4.13;;;10.30;99.90;;;;;;4974586;28;20176;-82
2022/04/06 09:57:47;;;;;;;9.50;4.07;;;10.40;99.90;;;;;;4975496;28;20211;-81
2022/04/06 10:00:21;;;;;;;7.20;3.93;;;10.40;99.90;;;;;;4975885;28;20183;-83
2022/04/06 10:03:13;;;;;;;8.00;4.23;;;10.40;99.90;;;;;;4975353;28;20164;-83
2022/04/06 10:05:42;;;;;;;7.83;3.60;;;10.40;99.90;;;;;;4975022;28;20165;-82
2022/04/06 10:08:09;;;;;;;8.67;3.60;;;10.40;99.90;;;;;;4974366;28;20181;-82
2022/04/06 10:10:38;;;;;;;8.57;3.70;;;10.40;99.90;;;;;;4975729;28;20164;-83
2022/04/06 10:13:04;;;;;;;5.17;3.60;;;10.40;99.90;;;;;;4975309;28;20169;-82
2022/04/06 10:15:31;;;;;;;7.20;4.53;;;10.40;99.90;;;;;;4975121;28;20240;-83
2022/04/06 10:17:57;;;;;;;10.37;4.03;;;10.30;99.90;;;;;;4973929;28;20220;-83
2022/04/06 10:20:37;;;;;;;9.17;3.70;;;10.30;99.90;;;;;;4975727;28;20315;-83
2022/04/06 10:23:05;;;;;;;8.73;3.83;;;10.30;99.90;;;;;;4975779;28;20607;-83
2022/04/06 10:26:03;;;;;;;9.67;3.77;;;10.30;99.90;;;;;;4990231;28;20524;-82
2022/04/06 10:28:33;;;;;;;6.47;3.47;;;10.20;99.90;;;;;;4975382;28;20284;-83
2022/04/06 10:31:15;;;;;;;7.20;3.50;;;10.20;99.90;;;;;;4974254;28;20181;-82
2022/04/06 10:33:40;;;;;;;5.93;3.07;;;10.20;99.90;;;;;;4974986;28;20239;-82
2022/04/06 10:36:23;;;;;;;7.67;3.70;;;10.10;99.90;;;;;;4975312;28;20177;-82
2022/04/06 10:39:07;;;;;;;4.87;3.20;;;10.10;99.90;;;;;;4974026;28;20211;-82
2022/04/06 10:41:39;;;;;;;8.37;3.83;;;10.10;99.90;;;;;;4990295;28;20177;-83
2022/04/06 10:44:05;;;;;;;6.97;3.67;;;10.10;99.90;;;;;;4974117;28;20180;-82
2022/04/06 10:46:38;;;;;;;7.47;3.67;;;10.20;99.90;;;;;;4975191;28;20565;-82
2022/04/06 10:49:06;;;;;;;9.53;3.43;;;10.20;99.90;;;;;;4973642;28;20551;-83
2022/04/06 10:51:37;;;;;;;5.53;3.80;;;10.20;99.90;;;;;;4990163;28;20177;-83
2022/04/06 10:54:12;;;;;;;6.87;4.33;;;10.20;99.90;;;;;;4973911;28;20181;-83
2022/04/06 10:56:50;;;;;;;7.80;4.07;;;10.20;99.90;;;;;;4975074;28;20523;-83
2022/04/06 10:59:17;;;;;;;10.40;4.40;;;10.20;99.90;;;;;;4989895;28;20184;-83
2022/04/06 11:01:48;;;;;;;6.13;4.27;;;10.20;99.90;;;;;;4975142;28;20251;-82
2022/04/06 11:04:19;;;;;;;6.43;4.40;;;10.20;99.90;;;;;;4974926;28;20168;-82
2022/04/06 11:06:59;;;;;;;7.93;4.30;;;10.20;99.90;;;;;;4975089;28;20176;-82
2022/04/06 11:12:29;;;;;;;13.03;4.33;;;10.10;99.90;;;;;;4975371;28;20180;-83
2022/04/06 11:14:57;;;;;;;11.47;4.10;;;10.10;99.90;;;;;;4974796;28;20245;-82
2022/04/06 11:17:38;;;;;;;13.13;4.17;;;10.10;99.90;;;;;;4974865;28;20235;-82
2022/04/06 11:20:42;;;;;;;8.23;3.83;;;10.10;99.90;;;;;;4989859;28;20187;-83
2022/04/06 11:23:08;;;;;;;8.90;3.67;;;10.10;99.90;;;;;;4963037;28;20196;-82
2022/04/06 11:25:34;;;;;;;12.07;3.57;;;10.00;99.90;;;;;;4977190;28;20206;-82
2022/04/06 11:28:07;;;;;;;9.57;3.70;;;10.00;99.90;;;;;;4977247;28;20698;-83
2022/04/06 11:30:34;;;;;;;9.87;3.60;;;10.00;99.90;;;;;;4993257;28;20183;-82
2022/04/06 11:33:02;;;;;;;7.17;3.47;;;10.00;99.90;;;;;;4976700;28;20519;-83
2022/04/06 11:35:36;;;;;;;5.37;3.30;;;10.00;99.90;;;;;;4977372;28;20656;-83
2022/04/06 11:38:08;;;;;;;6.37;3.27;;;10.00;99.90;;;;;;4976980;28;20240;-82
2022/04/06 11:40:39;;;;;;;9.83;3.00;;;10.00;99.90;;;;;;4976961;28;20670;-82
2022/04/06 11:43:05;;;;;;;6.40;3.13;;;10.10;99.90;;;;;;4977928;28;20176;-82
2022/04/06 11:45:37;;;;;;;12.67;3.73;;;10.20;99.90;;;;;;4992973;28;20197;-81
2022/04/06 11:48:06;;;;;;;9.00;3.23;;;10.20;99.90;;;;;;4976627;28;20176;-82
2022/04/06 11:50:37;;;;;;;6.97;3.37;;;10.20;99.90;;;;;;4978128;28;20216;-83
2022/04/06 11:53:18;;;;;;;7.53;3.40;;;10.20;99.90;;;;;;4977971;28;20172;-82
2022/04/06 11:55:48;;;;;;;7.47;3.10;;;10.10;99.90;;;;;;4978027;28;20469;-81
2022/04/06 11:58:33;;;;;;;5.40;3.20;;;10.20;99.90;;;;;;4976343;28;20555;-82
2022/04/06 12:01:01;;;;;;;6.93;3.00;;;10.20;99.90;;;;;;4976611;28;20180;-81
2022/04/06 12:03:28;;;;;;;6.90;3.40;;;10.20;99.90;;;;;;4976192;28;20187;-82
2022/04/06 12:05:53;;;;;;;8.13;3.37;;;10.30;99.90;;;;;;4977584;28;20168;-81
2022/04/06 12:08:19;;;;;;;7.13;3.17;;;10.30;99.90;;;;;;4977674;28;20311;-82
2022/04/06 12:10:53;;;;;;;7.63;3.37;;;10.40;99.90;;;;;;4976584;28;20177;-82
2022/04/06 12:13:21;;;;;;;6.27;3.77;;;10.40;99.90;;;;;;4976239;28;20207;-82
2022/04/06 12:15:48;;;;;;;6.30;3.60;;;10.40;99.90;;;;;;4977373;28;20224;-82
2022/04/06 12:18:21;;;;;;;6.93;4.17;;;10.50;99.90;;;;;;4975749;28;20247;-82
2022/04/06 12:20:47;;;;;;;7.10;3.77;;;10.70;99.90;;;;;;4976381;28;20520;-82
2022/04/06 12:23:14;;;;;;;7.13;4.13;;;10.70;99.90;;;;;;4977422;28;20698;-81
2022/04/06 12:25:40;;;;;;;7.47;4.32;;;10.80;99.90;;;;;;4975976;28;20677;-81
2022/04/06 12:28:23;;;;;;;5.80;3.77;;;10.90;99.90;;;;;;4976060;28;20184;-82
2022/04/06 12:31:00;;;;;;;5.07;4.00;;;10.80;99.90;;;;;;4977277;28;20575;-81
2022/04/06 12:33:38;;;;;;;7.40;4.10;;;10.90;99.90;;;;;;4975647;28;20177;-82
2022/04/06 12:36:24;;;;;;;5.90;4.03;;;11.00;99.90;;;;;;4976226;28;20164;-81
2022/04/06 12:39:10;;;;;;;6.85;4.47;;;11.00;99.90;;;;;;4977114;28;20208;-82
2022/04/06 12:42:05;;;;;;;9.80;4.05;;;11.10;99.90;;;;;;4975763;28;20177;-82
2022/04/06 12:44:32;;;;;;;5.57;4.32;;;11.10;99.90;;;;;;4975792;28;20188;-81
2022/04/06 12:46:59;;;;;;;7.28;4.25;;;11.20;99.90;;;;;;4977037;28;20177;-82
2022/04/06 12:49:37;;;;;;;7.75;4.20;;;11.30;99.90;;;;;;4976517;28;20176;-82
2022/04/06 12:52:16;;;;;;;8.18;4.22;;;11.30;99.90;;;;;;4976852;28;20509;-82
2022/04/06 12:54:47;;;;;;;5.35;4.47;;;11.30;99.90;;;;;;4991819;28;20203;-82
2022/04/06 12:57:19;;;;;;;5.45;3.80;;;11.30;99.90;;;;;;4975529;28;20227;-81